Muncie, IN (47302)

06:11 AM EDT die 01o October, anno 2014 (GMT -0400)
Woodland Trails | Change Station
CLOSE
Current Station
Personal Weather Stations
Location: Yorktown, IN
Elevation: 935 ft
Nearby Weather Stations

Elev 935 ft 40.19 °N, 85.47 °W | Updated 4 seconds ago

Serena
Serena
43.8 °F
Feels Like 44 °F
N
0.0
Ventus Variabilis Ventus from Magis Eurus quam Auster
Gusts 0.0 mph

Hodie
High -- | Low -- °F
--% Chance of Precip.
Yesterday
High -- | Low -- °F
Precip. -- in
7:37 AM 7:23 PM
Waxing Crescent, 46% visible
Pressio 30.00 in
Visibilitas 2.0 milia passuum
Clouds Few 600 ft
Frigus Venti 44 °F
Frigus in quo Ros apparet 43 °F
Umor 98%
Rainfall 0.00 in
Snow Depth Not available.
UV 0 out of 12
Pollen 4.70 out of 12
Air Quality Not available.
Flu Activity Not available.
SPECI KMIE 010956Z 09004KT 2SM BR FEW006 06/05 A3000 RMK AO2 T00560050

More Conditions Fewer Conditions

Pressio 30.00 in
Visibilitas 2.0 milia passuum
Clouds Few 600 ft
Frigus Venti 44 °F
Frigus in quo Ros apparet 43 °F
Umor 98%
Rainfall 0.00 in
Snow Depth Not available.
UV 0 out of 12
Pollen 4.70 out of 12
Air Quality Not available.
Flu Activity Not available.
SPECI KMIE 010956Z 09004KT 2SM BR FEW006 06/05 A3000 RMK AO2 T00560050

More Conditions Fewer Conditions

10-Day Weather Forecast

Almanac

Astronomy

Oct. 01, 2014 Rise Set
Actual Time 7:37 AM EDT 7:23 PM EDT
Civil Twilight 7:10 AM EDT 7:50 PM EDT
Nautical Twilight 6:39 AM EDT 8:22 PM EDT
Astronomical Twilight 6:07 AM EDT 8:53 PM EDT
Moon 2:38 PM EDT Nulla Occasus Lunae
Length Of Visible Light 12h 40m
Length of Day
11h 45m
Tomorrow will be 2m 37s shorter.
Waxing Crescent, 46% of the Moon is Illuminated
Hodie
Waxing Crescent
Oct 1
First Quarter
Oct 8
Full
Oct 15
Last Quarter
Oct 23
New

Today's Extremes

State Highs State Lows

Community

WunderPhotos

Upload Photos

1,757,905 photos uploaded!

WunderBlogs® & News

Nearby

Snow Depth

Station Depth Elevation
No new snow has been reported.

Earthquake Activity

City Distance Mag. Time & Date
No recent earthquake activity has been reported nearby.
Minimum magnitude displayed is 2.5.

Coastal Water Temperatures

Locus Calor
No Stations Reporting

Nearby Weather Stations